sensor_id;sensor_type;location;lat;lon;timestamp;pressure;altitude;pressure_sealevel;temperature;humidity
9764;BME280;4921;43.214;27.936;2022-08-11T00:01:07;100783.97;;;23.06;59.57
9764;BME280;4921;43.214;27.936;2022-08-11T00:03:41;100780.47;;;23.12;58.84
9764;BME280;4921;43.214;27.936;2022-08-11T00:06:09;100773.06;;;23.21;58.32
9764;BME280;4921;43.214;27.936;2022-08-11T00:08:39;100777.84;;;23.25;57.65
9764;BME280;4921;43.214;27.936;2022-08-11T00:11:10;100775.16;;;23.25;57.40
9764;BME280;4921;43.214;27.936;2022-08-11T00:13:40;100767.13;;;23.25;57.46
9764;BME280;4921;43.214;27.936;2022-08-11T00:16:15;100773.56;;;23.31;57.57
9764;BME280;4921;43.214;27.936;2022-08-11T00:18:44;100784.28;;;23.31;57.22
9764;BME280;4921;43.214;27.936;2022-08-11T00:21:12;100763.81;;;23.23;57.10
9764;BME280;4921;43.214;27.936;2022-08-11T00:23:42;100769.59;;;23.27;57.98
9764;BME280;4921;43.214;27.936;2022-08-11T00:26:12;100767.97;;;23.32;57.04
9764;BME280;4921;43.214;27.936;2022-08-11T00:28:40;100759.69;;;23.27;57.08
9764;BME280;4921;43.214;27.936;2022-08-11T00:31:10;100770.63;;;23.26;57.14
9764;BME280;4921;43.214;27.936;2022-08-11T00:33:45;100771.84;;;23.23;57.45
9764;BME280;4921;43.214;27.936;2022-08-11T00:36:15;100771.84;;;23.23;57.44
9764;BME280;4921;43.214;27.936;2022-08-11T00:38:44;100774.31;;;23.18;57.71
9764;BME280;4921;43.214;27.936;2022-08-11T00:41:22;100779.31;;;23.28;57.28
9764;BME280;4921;43.214;27.936;2022-08-11T00:44:09;100778.47;;;23.27;57.34
9764;BME280;4921;43.214;27.936;2022-08-11T00:46:49;100797.25;;;23.27;56.97
9764;BME280;4921;43.214;27.936;2022-08-11T00:49:32;100792.09;;;23.26;56.96
9764;BME280;4921;43.214;27.936;2022-08-11T00:52:12;100802.00;;;23.25;57.23
9764;BME280;4921;43.214;27.936;2022-08-11T00:58:31;100811.53;;;23.28;57.50
9764;BME280;4921;43.214;27.936;2022-08-11T01:01:08;100821.41;;;23.27;56.96
9764;BME280;4921;43.214;27.936;2022-08-11T01:06:59;100818.66;;;23.14;57.73
9764;BME280;4921;43.214;27.936;2022-08-11T01:09:55;100822.22;;;23.21;57.31
9764;BME280;4921;43.214;27.936;2022-08-11T01:12:48;100811.88;;;23.18;57.28
9764;BME280;4921;43.214;27.936;2022-08-11T01:28:55;100803.94;;;23.38;56.73
9764;BME280;4921;43.214;27.936;2022-08-11T01:41:04;100786.06;;;23.17;57.38
9764;BME280;4921;43.214;27.936;2022-08-11T01:46:56;100781.59;;;23.31;57.45
9764;BME280;4921;43.214;27.936;2022-08-11T01:49:35;100777.00;;;23.25;56.72
9764;BME280;4921;43.214;27.936;2022-08-11T01:52:14;100769.81;;;23.32;56.81
9764;BME280;4921;43.214;27.936;2022-08-11T01:57:35;100765.94;;;23.34;56.56
9764;BME280;4921;43.214;27.936;2022-08-11T02:00:08;100758.72;;;23.35;56.46
9764;BME280;4921;43.214;27.936;2022-08-11T02:02:45;100757.22;;;23.26;56.75
9764;BME280;4921;43.214;27.936;2022-08-11T02:05:54;100770.03;;;23.30;56.48
9764;BME280;4921;43.214;27.936;2022-08-11T02:08:36;100763.69;;;23.38;56.22
9764;BME280;4921;43.214;27.936;2022-08-11T02:11:19;100761.84;;;23.38;56.05
9764;BME280;4921;43.214;27.936;2022-08-11T02:14:06;100766.91;;;22.86;57.84
9764;BME280;4921;43.214;27.936;2022-08-11T02:16:47;100769.88;;;22.98;57.74
9764;BME280;4921;43.214;27.936;2022-08-11T02:19:25;100768.06;;;23.05;57.15
9764;BME280;4921;43.214;27.936;2022-08-11T02:22:22;100775.72;;;23.14;57.45
9764;BME280;4921;43.214;27.936;2022-08-11T02:25:16;100768.13;;;23.18;57.27
9764;BME280;4921;43.214;27.936;2022-08-11T02:27:50;100768.34;;;23.23;57.05
9764;BME280;4921;43.214;27.936;2022-08-11T02:30:24;100757.63;;;23.29;56.91
9764;BME280;4921;43.214;27.936;2022-08-11T02:32:58;100775.69;;;23.35;56.72
9764;BME280;4921;43.214;27.936;2022-08-11T02:36:03;100769.03;;;23.38;56.35
9764;BME280;4921;43.214;27.936;2022-08-11T02:38:39;100767.44;;;23.50;56.21
9764;BME280;4921;43.214;27.936;2022-08-11T02:41:15;100773.22;;;23.54;56.03
9764;BME280;4921;43.214;27.936;2022-08-11T02:44:20;100768.50;;;23.56;55.70
9764;BME280;4921;43.214;27.936;2022-08-11T02:47:05;100776.97;;;23.53;56.30
9764;BME280;4921;43.214;27.936;2022-08-11T02:49:41;100774.88;;;23.48;56.18
9764;BME280;4921;43.214;27.936;2022-08-11T02:52:36;100778.22;;;23.57;56.30
9764;BME280;4921;43.214;27.936;2022-08-11T02:55:16;100775.56;;;23.63;55.97
9764;BME280;4921;43.214;27.936;2022-08-11T02:57:50;100772.44;;;23.66;55.47
9764;BME280;4921;43.214;27.936;2022-08-11T03:00:19;100779.41;;;23.47;56.14
9764;BME280;4921;43.214;27.936;2022-08-11T03:03:12;100778.19;;;23.50;56.60
9764;BME280;4921;43.214;27.936;2022-08-11T03:05:48;100784.59;;;23.56;56.38
9764;BME280;4921;43.214;27.936;2022-08-11T03:08:28;100778.22;;;23.57;56.41
9764;BME280;4921;43.214;27.936;2022-08-11T03:11:02;100770.56;;;23.60;56.23
9764;BME280;4921;43.214;27.936;2022-08-11T03:14:07;100770.56;;;23.60;56.51
9764;BME280;4921;43.214;27.936;2022-08-11T03:16:52;100776.34;;;23.57;56.68
9764;BME280;4921;43.214;27.936;2022-08-11T03:19:27;100783.59;;;23.63;56.67
9764;BME280;4921;43.214;27.936;2022-08-11T03:22:01;100783.38;;;23.58;56.46
9764;BME280;4921;43.214;27.936;2022-08-11T03:24:38;100788.56;;;23.66;56.77
9764;BME280;4921;43.214;27.936;2022-08-11T03:27:18;100772.03;;;23.69;56.43
9764;BME280;4921;43.214;27.936;2022-08-11T03:30:01;100783.19;;;23.73;56.25
9764;BME280;4921;43.214;27.936;2022-08-11T03:32:33;100787.34;;;23.75;56.87
9764;BME280;4921;43.214;27.936;2022-08-11T03:35:07;100777.00;;;23.79;56.94
9764;BME280;4921;43.214;27.936;2022-08-11T03:37:41;100774.97;;;23.81;56.55
9764;BME280;4921;43.214;27.936;2022-08-11T03:40:29;100788.41;;;23.81;56.51
9764;BME280;4921;43.214;27.936;2022-08-11T03:43:23;100785.06;;;23.79;56.58
9764;BME280;4921;43.214;27.936;2022-08-11T03:45:58;100787.34;;;23.82;56.36
9764;BME280;4921;43.214;27.936;2022-08-11T03:48:39;100788.19;;;23.82;56.13
9764;BME280;4921;43.214;27.936;2022-08-11T03:51:17;100783.63;;;23.76;56.61
9764;BME280;4921;43.214;27.936;2022-08-11T03:53:58;100791.28;;;23.79;56.66
9764;BME280;4921;43.214;27.936;2022-08-11T03:56:50;100788.59;;;23.79;56.60
9764;BME280;4921;43.214;27.936;2022-08-11T04:03:01;100772.88;;;23.70;57.69
9764;BME280;4921;43.214;27.936;2022-08-11T04:06:32;100784.44;;;23.70;57.37
9764;BME280;4921;43.214;27.936;2022-08-11T04:09:34;100783.81;;;23.75;57.44
9764;BME280;4921;43.214;27.936;2022-08-11T04:12:33;100773.28;;;23.73;57.16
9764;BME280;4921;43.214;27.936;2022-08-11T04:15:17;100779.88;;;23.71;57.60
9764;BME280;4921;43.214;27.936;2022-08-11T04:18:23;100783.19;;;23.73;58.05
9764;BME280;4921;43.214;27.936;2022-08-11T04:21:05;100787.34;;;23.75;57.57
9764;BME280;4921;43.214;27.936;2022-08-11T04:26:55;100795.03;;;23.85;57.45
9764;BME280;4921;43.214;27.936;2022-08-11T04:29:41;100789.66;;;23.85;57.56
9764;BME280;4921;43.214;27.936;2022-08-11T04:35:29;100796.25;;;23.89;57.78
9764;BME280;4921;43.214;27.936;2022-08-11T04:45:05;100795.44;;;24.01;58.00
9764;BME280;4921;43.214;27.936;2022-08-11T04:47:49;100787.59;;;24.00;58.44
9764;BME280;4921;43.214;27.936;2022-08-11T04:50:55;100796.91;;;23.97;58.35
9764;BME280;4921;43.214;27.936;2022-08-11T04:53:49;100785.09;;;23.98;59.11
9764;BME280;4921;43.214;27.936;2022-08-11T04:56:38;100788.41;;;23.94;59.80
9764;BME280;4921;43.214;27.936;2022-08-11T04:59:59;100797.28;;;23.94;60.69
9764;BME280;4921;43.214;27.936;2022-08-11T05:03:34;100789.06;;;23.96;60.53
9764;BME280;4921;43.214;27.936;2022-08-11T05:09:28;100794.84;;;23.99;60.83
9764;BME280;4921;43.214;27.936;2022-08-11T05:12:32;100803.78;;;24.06;60.23
9764;BME280;4921;43.214;27.936;2022-08-11T05:15:02;100795.09;;;24.11;59.81
9764;BME280;4921;43.214;27.936;2022-08-11T05:17:56;100813.25;;;24.09;61.77
9764;BME280;4921;43.214;27.936;2022-08-11T05:20:46;100812.03;;;24.11;61.37
9764;BME280;4921;43.214;27.936;2022-08-11T05:23:33;100809.34;;;24.18;60.47
9764;BME280;4921;43.214;27.936;2022-08-11T05:26:18;100816.59;;;24.24;60.15
9764;BME280;4921;43.214;27.936;2022-08-11T05:29:24;100813.72;;;24.32;59.57
9764;BME280;4921;43.214;27.936;2022-08-11T05:32:11;100821.16;;;24.37;59.45
9764;BME280;4921;43.214;27.936;2022-08-11T05:35:01;100823.63;;;24.45;59.62
9764;BME280;4921;43.214;27.936;2022-08-11T05:37:36;100827.34;;;24.50;59.57
9764;BME280;4921;43.214;27.936;2022-08-11T05:40:10;100836.66;;;24.48;59.65
9764;BME280;4921;43.214;27.936;2022-08-11T05:42:57;100828.78;;;24.53;59.94
9764;BME280;4921;43.214;27.936;2022-08-11T05:45:43;100830.03;;;24.57;59.61
9764;BME280;4921;43.214;27.936;2022-08-11T05:48:32;100832.31;;;24.60;59.32
9764;BME280;4921;43.214;27.936;2022-08-11T05:51:17;100829.19;;;24.63;59.07
9764;BME280;4921;43.214;27.936;2022-08-11T05:54:06;100832.31;;;24.73;58.65
9764;BME280;4921;43.214;27.936;2022-08-11T05:56:55;100839.34;;;24.80;58.56
9764;BME280;4921;43.214;27.936;2022-08-11T05:59:24;100846.81;;;24.85;58.99
9764;BME280;4921;43.214;27.936;2022-08-11T06:01:59;100835.41;;;24.89;58.28
9764;BME280;4921;43.214;27.936;2022-08-11T06:04:27;100841.84;;;24.95;58.11
9764;BME280;4921;43.214;27.936;2022-08-11T06:06:56;100842.00;;;25.00;57.57
9764;BME280;4921;43.214;27.936;2022-08-11T06:09:27;100840.38;;;25.06;57.51
9764;BME280;4921;43.214;27.936;2022-08-11T06:11:58;100830.59;;;25.11;56.90
9764;BME280;4921;43.214;27.936;2022-08-11T06:14:26;100843.81;;;25.19;56.73
9764;BME280;4921;43.214;27.936;2022-08-11T06:16:57;100838.25;;;25.21;56.60
9764;BME280;4921;43.214;27.936;2022-08-11T06:19:32;100829.34;;;25.20;56.09
9764;BME280;4921;43.214;27.936;2022-08-11T06:22:00;100836.19;;;25.23;56.01
9764;BME280;4921;43.214;27.936;2022-08-11T06:24:29;100834.94;;;25.25;56.02
9764;BME280;4921;43.214;27.936;2022-08-11T06:26:58;100835.09;;;25.30;55.59
9764;BME280;4921;43.214;27.936;2022-08-11T06:29:26;100833.63;;;25.34;55.58
9764;BME280;4921;43.214;27.936;2022-08-11T06:31:57;100833.22;;;25.37;55.73
9764;BME280;4921;43.214;27.936;2022-08-11T06:34:53;100829.91;;;25.42;55.63
9764;BME280;4921;43.214;27.936;2022-08-11T06:37:26;100821.84;;;25.35;56.84
9764;BME280;4921;43.214;27.936;2022-08-11T06:40:05;100827.22;;;25.42;55.45
9764;BME280;4921;43.214;27.936;2022-08-11T06:42:45;100826.56;;;25.53;54.79
9764;BME280;4921;43.214;27.936;2022-08-11T06:45:22;100820.31;;;25.59;53.79
9764;BME280;4921;43.214;27.936;2022-08-11T06:47:52;100810.38;;;25.59;54.04
9764;BME280;4921;43.214;27.936;2022-08-11T06:50:20;100832.50;;;25.68;53.65
9764;BME280;4921;43.214;27.936;2022-08-11T06:53:07;100827.28;;;25.73;52.46
9764;BME280;4921;43.214;27.936;2022-08-11T06:55:39;100833.06;;;25.77;52.55
9764;BME280;4921;43.214;27.936;2022-08-11T06:58:28;100834.53;;;25.79;51.66
9764;BME280;4921;43.214;27.936;2022-08-11T07:01:28;100834.91;;;25.83;51.63
9764;BME280;4921;43.214;27.936;2022-08-11T07:04:03;100824.69;;;25.91;51.14
9764;BME280;4921;43.214;27.936;2022-08-11T07:06:39;100833.63;;;25.92;50.64
9764;BME280;4921;43.214;27.936;2022-08-11T07:09:42;100831.31;;;25.95;50.54
9764;BME280;4921;43.214;27.936;2022-08-11T07:12:39;100831.31;;;25.95;50.58
9764;BME280;4921;43.214;27.936;2022-08-11T07:15:30;100830.00;;;26.11;49.57
9764;BME280;4921;43.214;27.936;2022-08-11T07:18:10;100839.28;;;26.15;49.54
9764;BME280;4921;43.214;27.936;2022-08-11T07:21:07;100834.88;;;26.20;49.49
9764;BME280;4921;43.214;27.936;2022-08-11T07:23:54;100836.31;;;26.23;49.45
9764;BME280;4921;43.214;27.936;2022-08-11T07:26:44;100846.91;;;26.24;49.20
9764;BME280;4921;43.214;27.936;2022-08-11T07:29:34;100842.88;;;26.33;48.72
9764;BME280;4921;43.214;27.936;2022-08-11T07:32:14;100847.25;;;26.34;48.45
9764;BME280;4921;43.214;27.936;2022-08-11T07:34:49;100853.63;;;26.40;48.27
9764;BME280;4921;43.214;27.936;2022-08-11T07:37:19;100840.91;;;26.47;48.53
9764;BME280;4921;43.214;27.936;2022-08-11T07:39:48;100840.84;;;26.54;47.39
9764;BME280;4921;43.214;27.936;2022-08-11T07:42:19;100847.47;;;26.58;48.14
9764;BME280;4921;43.214;27.936;2022-08-11T07:44:49;100839.78;;;26.61;47.62
9764;BME280;4921;43.214;27.936;2022-08-11T07:47:36;100842.16;;;26.76;47.31
9764;BME280;4921;43.214;27.936;2022-08-11T07:50:21;100835.50;;;26.78;46.74
9764;BME280;4921;43.214;27.936;2022-08-11T07:53:07;100838.31;;;26.83;47.10
9764;BME280;4921;43.214;27.936;2022-08-11T07:55:34;100837.66;;;26.88;48.28
9764;BME280;4921;43.214;27.936;2022-08-11T07:58:03;100840.28;;;26.94;46.83
9764;BME280;4921;43.214;27.936;2022-08-11T08:00:51;100833.34;;;27.05;46.48
9764;BME280;4921;43.214;27.936;2022-08-11T08:03:37;100835.59;;;27.08;46.67
9764;BME280;4921;43.214;27.936;2022-08-11T08:06:23;100834.69;;;27.14;45.71
9764;BME280;4921;43.214;27.936;2022-08-11T08:09:08;100826.94;;;27.17;46.00
9764;BME280;4921;43.214;27.936;2022-08-11T08:11:54;100823.22;;;27.18;46.49
9764;BME280;4921;43.214;27.936;2022-08-11T08:14:39;100827.34;;;27.21;46.80
9764;BME280;4921;43.214;27.936;2022-08-11T08:17:25;100828.06;;;27.28;46.66
9764;BME280;4921;43.214;27.936;2022-08-11T08:20:12;100821.94;;;27.39;46.25
9764;BME280;4921;43.214;27.936;2022-08-11T08:22:40;100828.34;;;27.45;44.95
9764;BME280;4921;43.214;27.936;2022-08-11T08:25:08;100834.69;;;27.50;44.34
9764;BME280;4921;43.214;27.936;2022-08-11T08:27:35;100830.63;;;27.59;44.60
9764;BME280;4921;43.214;27.936;2022-08-11T08:30:05;100829.88;;;27.70;43.64
9764;BME280;4921;43.214;27.936;2022-08-11T08:32:51;100831.06;;;27.74;42.61
9764;BME280;4921;43.214;27.936;2022-08-11T08:35:22;100826.16;;;27.83;42.94
9764;BME280;4921;43.214;27.936;2022-08-11T08:37:49;100820.75;;;27.83;42.60
9764;BME280;4921;43.214;27.936;2022-08-11T08:40:17;100828.59;;;27.73;43.40
9764;BME280;4921;43.214;27.936;2022-08-11T08:42:46;100825.06;;;27.72;41.90
9764;BME280;4921;43.214;27.936;2022-08-11T08:45:16;100822.72;;;27.76;41.86
9764;BME280;4921;43.214;27.936;2022-08-11T08:47:47;100818.88;;;27.83;41.60
9764;BME280;4921;43.214;27.936;2022-08-11T08:50:20;100829.53;;;27.78;41.44
9764;BME280;4921;43.214;27.936;2022-08-11T08:52:53;100820.16;;;27.81;40.56
9764;BME280;4921;43.214;27.936;2022-08-11T08:55:21;100810.66;;;27.90;40.08
9764;BME280;4921;43.214;27.936;2022-08-11T08:57:49;100812.25;;;27.98;39.83
9764;BME280;4921;43.214;27.936;2022-08-11T09:00:19;100812.69;;;27.94;39.92
9764;BME280;4921;43.214;27.936;2022-08-11T09:02:47;100811.44;;;27.97;40.36
9764;BME280;4921;43.214;27.936;2022-08-11T09:05:16;100810.50;;;28.03;40.75
9764;BME280;4921;43.214;27.936;2022-08-11T09:07:46;100803.56;;;28.07;40.88
9764;BME280;4921;43.214;27.936;2022-08-11T09:10:18;100793.69;;;28.13;40.98
9764;BME280;4921;43.214;27.936;2022-08-11T09:12:45;100802.78;;;28.30;40.39
9764;BME280;4921;43.214;27.936;2022-08-11T09:15:13;100795.72;;;28.40;38.85
9764;BME280;4921;43.214;27.936;2022-08-11T09:17:44;100787.16;;;28.43;39.63
9764;BME280;4921;43.214;27.936;2022-08-11T09:20:14;100802.69;;;28.48;39.83
9764;BME280;4921;43.214;27.936;2022-08-11T09:22:45;100793.22;;;28.57;39.73
9764;BME280;4921;43.214;27.936;2022-08-11T09:25:31;100804.13;;;28.62;39.68
9764;BME280;4921;43.214;27.936;2022-08-11T09:28:17;100793.44;;;28.67;39.40
9764;BME280;4921;43.214;27.936;2022-08-11T09:30:46;100795.19;;;28.73;38.94
9764;BME280;4921;43.214;27.936;2022-08-11T09:33:18;100797.06;;;28.84;38.24
9764;BME280;4921;43.214;27.936;2022-08-11T09:35:46;100794.56;;;28.94;38.25
9764;BME280;4921;43.214;27.936;2022-08-11T09:38:19;100795.19;;;28.96;37.83
9764;BME280;4921;43.214;27.936;2022-08-11T09:41:05;100795.16;;;29.08;38.10
9764;BME280;4921;43.214;27.936;2022-08-11T09:43:35;100786.66;;;29.16;37.68
9764;BME280;4921;43.214;27.936;2022-08-11T09:46:24;100791.94;;;29.34;36.84
9764;BME280;4921;43.214;27.936;2022-08-11T09:48:54;100794.22;;;29.54;36.93
9764;BME280;4921;43.214;27.936;2022-08-11T09:51:21;100786.84;;;29.77;35.96
9764;BME280;4921;43.214;27.936;2022-08-11T09:53:51;100792.78;;;29.91;35.68
9764;BME280;4921;43.214;27.936;2022-08-11T09:56:21;100785.88;;;30.00;36.09
9764;BME280;4921;43.214;27.936;2022-08-11T09:59:05;100775.06;;;30.17;36.07
9764;BME280;4921;43.214;27.936;2022-08-11T10:01:35;100773.91;;;30.29;35.50
9764;BME280;4921;43.214;27.936;2022-08-11T10:04:10;100773.59;;;30.42;35.24
9764;BME280;4921;43.214;27.936;2022-08-11T10:06:40;100773.91;;;30.62;34.07
9764;BME280;4921;43.214;27.936;2022-08-11T10:09:27;100767.13;;;30.81;33.90
9764;BME280;4921;43.214;27.936;2022-08-11T10:11:56;100775.69;;;30.90;33.85
9764;BME280;4921;43.214;27.936;2022-08-11T10:14:25;100772.81;;;31.02;33.28
9764;BME280;4921;43.214;27.936;2022-08-11T10:17:11;100771.69;;;31.19;33.61
9764;BME280;4921;43.214;27.936;2022-08-11T10:19:41;100768.31;;;31.34;33.43
9764;BME280;4921;43.214;27.936;2022-08-11T10:22:09;100771.00;;;31.50;33.72
9764;BME280;4921;43.214;27.936;2022-08-11T10:24:56;100782.81;;;31.61;32.88
9764;BME280;4921;43.214;27.936;2022-08-11T10:27:42;100767.78;;;31.80;32.39
9764;BME280;4921;43.214;27.936;2022-08-11T10:30:10;100758.63;;;31.91;32.33
9764;BME280;4921;43.214;27.936;2022-08-11T10:32:56;100763.13;;;32.07;31.80
9764;BME280;4921;43.214;27.936;2022-08-11T10:35:42;100772.31;;;32.28;31.37
9764;BME280;4921;43.214;27.936;2022-08-11T10:38:12;100772.94;;;32.40;31.64
9764;BME280;4921;43.214;27.936;2022-08-11T10:40:45;100781.19;;;32.50;31.81
9764;BME280;4921;43.214;27.936;2022-08-11T10:43:33;100775.13;;;32.43;30.61
9764;BME280;4921;43.214;27.936;2022-08-11T10:46:01;100774.72;;;32.56;30.55
9764;BME280;4921;43.214;27.936;2022-08-11T10:48:45;100769.03;;;32.68;30.77
9764;BME280;4921;43.214;27.936;2022-08-11T10:51:13;100763.41;;;32.79;30.02
9764;BME280;4921;43.214;27.936;2022-08-11T10:53:41;100778.97;;;32.84;30.58
9764;BME280;4921;43.214;27.936;2022-08-11T10:56:29;100764.78;;;32.82;29.96
9764;BME280;4921;43.214;27.936;2022-08-11T10:59:15;100764.47;;;32.78;29.85
9764;BME280;4921;43.214;27.936;2022-08-11T11:01:43;100757.44;;;32.82;30.19
9764;BME280;4921;43.214;27.936;2022-08-11T11:04:12;100761.75;;;32.78;30.25
9764;BME280;4921;43.214;27.936;2022-08-11T11:06:48;100762.59;;;32.84;29.58
9764;BME280;4921;43.214;27.936;2022-08-11T11:09:18;100754.63;;;32.72;29.32
9764;BME280;4921;43.214;27.936;2022-08-11T11:11:50;100744.56;;;32.73;30.10
9764;BME280;4921;43.214;27.936;2022-08-11T11:14:36;100739.34;;;32.66;29.98
9764;BME280;4921;43.214;27.936;2022-08-11T11:17:27;100745.91;;;32.70;30.20
9764;BME280;4921;43.214;27.936;2022-08-11T11:20:19;100741.03;;;32.77;30.31
9764;BME280;4921;43.214;27.936;2022-08-11T11:22:50;100742.38;;;32.75;29.25
9764;BME280;4921;43.214;27.936;2022-08-11T11:25:34;100727.34;;;32.62;29.42
9764;BME280;4921;43.214;27.936;2022-08-11T11:28:26;100742.03;;;32.61;30.15
9764;BME280;4921;43.214;27.936;2022-08-11T11:31:06;100730.66;;;32.69;29.35
9764;BME280;4921;43.214;27.936;2022-08-11T11:33:48;100734.22;;;32.75;29.82
9764;BME280;4921;43.214;27.936;2022-08-11T11:36:27;100728.88;;;32.48;29.19
9764;BME280;4921;43.214;27.936;2022-08-11T11:38:56;100723.06;;;32.40;29.67
9764;BME280;4921;43.214;27.936;2022-08-11T11:41:24;100729.34;;;32.40;29.80
9764;BME280;4921;43.214;27.936;2022-08-11T11:43:54;100724.53;;;32.47;29.21
9764;BME280;4921;43.214;27.936;2022-08-11T11:46:25;100719.56;;;32.39;29.20
9764;BME280;4921;43.214;27.936;2022-08-11T11:48:53;100712.22;;;32.45;29.44
9764;BME280;4921;43.214;27.936;2022-08-11T11:51:21;100722.63;;;32.48;29.62
9764;BME280;4921;43.214;27.936;2022-08-11T11:53:50;100712.53;;;32.48;30.18
9764;BME280;4921;43.214;27.936;2022-08-11T11:56:18;100724.53;;;32.47;30.12
9764;BME280;4921;43.214;27.936;2022-08-11T11:58:48;100715.19;;;32.38;29.44
9764;BME280;4921;43.214;27.936;2022-08-11T12:01:34;100721.72;;;32.37;30.42
9764;BME280;4921;43.214;27.936;2022-08-11T12:04:03;100712.97;;;32.35;29.84
9764;BME280;4921;43.214;27.936;2022-08-11T12:06:49;100722.25;;;32.34;29.85
9764;BME280;4921;43.214;27.936;2022-08-11T12:09:37;100723.31;;;32.33;29.82
9764;BME280;4921;43.214;27.936;2022-08-11T12:12:05;100719.47;;;32.24;30.07
9764;BME280;4921;43.214;27.936;2022-08-11T12:14:51;100714.28;;;32.27;29.54
9764;BME280;4921;43.214;27.936;2022-08-11T12:17:20;100720.47;;;32.13;29.50
9764;BME280;4921;43.214;27.936;2022-08-11T12:19:49;100722.91;;;32.14;29.58
9764;BME280;4921;43.214;27.936;2022-08-11T12:22:18;100720.25;;;32.19;29.67
9764;BME280;4921;43.214;27.936;2022-08-11T12:25:02;100713.69;;;32.20;30.54
9764;BME280;4921;43.214;27.936;2022-08-11T12:27:46;100722.13;;;32.19;30.48
9764;BME280;4921;43.214;27.936;2022-08-11T12:30:13;100715.59;;;32.20;30.17
9764;BME280;4921;43.214;27.936;2022-08-11T12:32:42;100728.47;;;32.29;29.59
9764;BME280;4921;43.214;27.936;2022-08-11T12:35:13;100724.91;;;32.24;29.92
9764;BME280;4921;43.214;27.936;2022-08-11T12:37:43;100727.06;;;32.22;29.73
9764;BME280;4921;43.214;27.936;2022-08-11T12:40:12;100718.59;;;32.18;29.73
9764;BME280;4921;43.214;27.936;2022-08-11T12:43:04;100719.41;;;32.19;29.58
9764;BME280;4921;43.214;27.936;2022-08-11T12:45:54;100717.41;;;32.04;29.73
9764;BME280;4921;43.214;27.936;2022-08-11T12:48:27;100721.97;;;31.99;29.95
9764;BME280;4921;43.214;27.936;2022-08-11T12:51:18;100713.44;;;31.90;29.77
9764;BME280;4921;43.214;27.936;2022-08-11T12:54:13;100710.97;;;31.89;30.19
9764;BME280;4921;43.214;27.936;2022-08-11T12:56:45;100715.31;;;31.90;30.33
9764;BME280;4921;43.214;27.936;2022-08-11T12:59:31;100722.69;;;31.89;31.10
9764;BME280;4921;43.214;27.936;2022-08-11T13:02:17;100719.69;;;31.91;30.92
9764;BME280;4921;43.214;27.936;2022-08-11T13:05:06;100714.75;;;31.88;30.47
9764;BME280;4921;43.214;27.936;2022-08-11T13:07:34;100711.25;;;31.87;30.73
9764;BME280;4921;43.214;27.936;2022-08-11T13:10:05;100722.06;;;31.82;31.28
9764;BME280;4921;43.214;27.936;2022-08-11T13:12:34;100715.09;;;31.91;30.54
9764;BME280;4921;43.214;27.936;2022-08-11T13:15:14;100709.31;;;31.88;30.59
9764;BME280;4921;43.214;27.936;2022-08-11T13:17:42;100716.69;;;31.87;30.79
9764;BME280;4921;43.214;27.936;2022-08-11T13:20:11;100718.25;;;31.83;30.56
9764;BME280;4921;43.214;27.936;2022-08-11T13:22:40;100710.84;;;31.74;30.52
9764;BME280;4921;43.214;27.936;2022-08-11T13:25:11;100705.91;;;31.71;30.77
9764;BME280;4921;43.214;27.936;2022-08-11T13:27:40;100716.22;;;31.64;30.73
9764;BME280;4921;43.214;27.936;2022-08-11T13:30:08;100711.28;;;31.60;30.92
9764;BME280;4921;43.214;27.936;2022-08-11T13:32:53;100706.59;;;31.56;31.28
9764;BME280;4921;43.214;27.936;2022-08-11T13:35:23;100708.81;;;31.59;30.94
9764;BME280;4921;43.214;27.936;2022-08-11T13:37:52;100717.19;;;31.52;31.16
9764;BME280;4921;43.214;27.936;2022-08-11T13:40:21;100710.84;;;31.47;31.17
9764;BME280;4921;43.214;27.936;2022-08-11T13:42:50;100702.41;;;31.43;30.49
9764;BME280;4921;43.214;27.936;2022-08-11T13:45:21;100715.88;;;31.33;30.79
9764;BME280;4921;43.214;27.936;2022-08-11T13:47:51;100707.59;;;31.23;31.43
9764;BME280;4921;43.214;27.936;2022-08-11T13:50:18;100694.00;;;31.23;31.33
9764;BME280;4921;43.214;27.936;2022-08-11T13:52:48;100708.50;;;31.07;31.59
9764;BME280;4921;43.214;27.936;2022-08-11T13:55:15;100708.38;;;30.97;32.12
9764;BME280;4921;43.214;27.936;2022-08-11T13:57:50;100715.94;;;30.95;31.98
9764;BME280;4921;43.214;27.936;2022-08-11T14:00:19;100716.47;;;30.92;32.11
9764;BME280;4921;43.214;27.936;2022-08-11T14:02:49;100708.31;;;30.92;31.82
9764;BME280;4921;43.214;27.936;2022-08-11T14:05:20;100712.38;;;30.90;31.83
9764;BME280;4921;43.214;27.936;2022-08-11T14:07:51;100709.66;;;30.90;31.96
9764;BME280;4921;43.214;27.936;2022-08-11T14:10:21;100711.19;;;30.85;32.02
9764;BME280;4921;43.214;27.936;2022-08-11T14:12:54;100720.09;;;30.81;32.13
9764;BME280;4921;43.214;27.936;2022-08-11T14:15:41;100704.28;;;30.78;32.15
9764;BME280;4921;43.214;27.936;2022-08-11T14:18:16;100713.75;;;30.75;32.41
9764;BME280;4921;43.214;27.936;2022-08-11T14:20:47;100706.13;;;30.72;32.31
9764;BME280;4921;43.214;27.936;2022-08-11T14:23:38;100706.13;;;30.72;32.38
9764;BME280;4921;43.214;27.936;2022-08-11T14:26:06;100708.78;;;30.67;33.15
9764;BME280;4921;43.214;27.936;2022-08-11T14:28:53;100706.31;;;30.66;32.87
9764;BME280;4921;43.214;27.936;2022-08-11T14:31:21;100706.63;;;30.69;32.52
9764;BME280;4921;43.214;27.936;2022-08-11T14:33:52;100715.78;;;30.63;32.65
9764;BME280;4921;43.214;27.936;2022-08-11T14:36:21;100711.09;;;30.59;32.59
9764;BME280;4921;43.214;27.936;2022-08-11T14:38:51;100712.75;;;30.60;32.79
9764;BME280;4921;43.214;27.936;2022-08-11T14:41:20;100711.44;;;30.62;32.87
9764;BME280;4921;43.214;27.936;2022-08-11T14:44:06;100720.38;;;30.63;32.85
9764;BME280;4921;43.214;27.936;2022-08-11T14:46:51;100718.75;;;30.62;32.51
9764;BME280;4921;43.214;27.936;2022-08-11T14:49:33;100719.25;;;30.59;32.64
9764;BME280;4921;43.214;27.936;2022-08-11T14:52:02;100726.00;;;30.56;32.80
9764;BME280;4921;43.214;27.936;2022-08-11T14:54:31;100722.97;;;30.53;32.66